Time;durP1;ratioP1;P1;durP2;ratioP2;P2;SDS_P1;SDS_P2;PMS_P1;PMS_P2;Temp;Humidity;BMP_temperature;BMP_pressure;BME280_temperature;BME280_humidity;BME280_pressure;Samples;Min_cycle;Max_cycle;Signal;HPM_P1;HPM_P2
2023/08/08 00:00:44;;;;;;;;;;;24.60;50.00;;;;;;5093857;28;19924;-54
2023/08/08 00:03:10;;;;;;;;;;;24.60;50.00;;;;;;5093037;28;19932;-55
2023/08/08 00:05:37;;;;;;;;;;;24.60;50.10;;;;;;5092917;28;19966;-56
2023/08/08 00:08:05;;;;;;;;;;;24.60;50.10;;;;;;5092941;28;20349;-55
2023/08/08 00:10:32;;;;;;;;;;;24.60;50.10;;;;;;5093160;28;19982;-50
2023/08/08 00:12:59;;;;;;;;;;;24.60;50.10;;;;;;5092723;28;19978;-50
2023/08/08 00:15:26;;;;;;;;;;;24.60;50.20;;;;;;5093702;28;19977;-53
2023/08/08 00:17:53;;;;;;;;;;;24.60;50.20;;;;;;5092020;28;19924;-54
2023/08/08 00:20:20;;;;;;;;;;;24.60;50.20;;;;;;5092948;28;19931;-55
2023/08/08 00:22:47;;;;;;;;;;;24.50;50.10;;;;;;5092355;28;20443;-52
2023/08/08 00:25:14;;;;;;;;;;;24.50;50.10;;;;;;5092506;28;19985;-53
2023/08/08 00:27:43;;;;;;;;;;;24.60;50.20;;;;;;5093568;28;20018;-53
2023/08/08 00:30:11;;;;;;;;;;;24.50;50.20;;;;;;5093542;28;19993;-52
2023/08/08 00:32:39;;;;;;;;;;;24.50;50.20;;;;;;5093800;28;19978;-53
2023/08/08 00:35:06;;;;;;;;;;;24.50;50.20;;;;;;5093599;28;19924;-52
2023/08/08 00:37:33;;;;;;;;;;;24.60;50.30;;;;;;5093638;28;19931;-55
2023/08/08 00:40:00;;;;;;;;;;;24.50;50.30;;;;;;5093255;28;20435;-52
2023/08/08 00:42:27;;;;;;;;;;;24.50;50.30;;;;;;5092413;28;19978;-55
2023/08/08 00:44:53;;;;;;;;;;;24.50;50.30;;;;;;5093122;28;19925;-54
2023/08/08 00:47:21;;;;;;;;;;;24.50;50.30;;;;;;5096178;28;19924;-50
2023/08/08 00:49:48;;;;;;;;;;;24.50;50.20;;;;;;5097269;28;19924;-55
2023/08/08 00:52:15;;;;;;;;;;;24.60;50.30;;;;;;5097216;28;19970;-55
2023/08/08 00:54:42;;;;;;;;;;;24.50;50.20;;;;;;5096261;28;20396;-54
2023/08/08 00:57:09;;;;;;;;;;;24.60;50.30;;;;;;5097066;28;19969;-55
2023/08/08 00:59:36;;;;;;;;;;;24.60;50.20;;;;;;5096732;28;20299;-53
2023/08/08 01:02:03;;;;;;;;;;;24.50;50.20;;;;;;5097062;28;19931;-55
2023/08/08 01:04:30;;;;;;;;;;;24.60;50.20;;;;;;5096650;28;19924;-56
2023/08/08 01:07:04;;;;;;;;;;;24.50;50.10;;;;;;5097176;28;20270;-52
2023/08/08 01:09:37;;;;;;;;;;;24.50;50.20;;;;;;5096690;28;19967;-52
2023/08/08 01:12:05;;;;;;;;;;;24.60;50.20;;;;;;5096260;28;20342;-50
2023/08/08 01:14:32;;;;;;;;;;;24.60;50.20;;;;;;5094140;28;19932;-49
2023/08/08 01:16:59;;;;;;;;;;;24.60;50.20;;;;;;5096559;28;20022;-54
2023/08/08 01:19:28;;;;;;;;;;;24.60;50.20;;;;;;5095634;28;19927;-52
2023/08/08 01:21:57;;;;;;;;;;;24.60;50.20;;;;;;5096123;28;19928;-51
2023/08/08 01:24:29;;;;;;;;;;;24.60;50.20;;;;;;5096633;28;19930;-55
2023/08/08 01:26:56;;;;;;;;;;;24.60;50.30;;;;;;5096825;28;19931;-55
2023/08/08 01:29:23;;;;;;;;;;;24.50;50.30;;;;;;5096416;28;19931;-55
2023/08/08 01:31:50;;;;;;;;;;;24.50;50.30;;;;;;5095900;28;19969;-54
2023/08/08 01:34:17;;;;;;;;;;;24.50;50.30;;;;;;5095500;28;20351;-55
2023/08/08 01:36:48;;;;;;;;;;;24.50;50.30;;;;;;5096216;28;20372;-54
2023/08/08 01:39:17;;;;;;;;;;;24.50;50.40;;;;;;5095736;28;19969;-55
2023/08/08 01:41:47;;;;;;;;;;;24.50;50.40;;;;;;5095436;28;19928;-53
2023/08/08 01:44:14;;;;;;;;;;;24.50;50.40;;;;;;5095975;28;19924;-52
2023/08/08 01:46:41;;;;;;;;;;;24.50;50.40;;;;;;5096483;28;19969;-52
2023/08/08 01:49:08;;;;;;;;;;;24.50;50.50;;;;;;5095548;28;19925;-55
2023/08/08 01:51:35;;;;;;;;;;;24.50;50.50;;;;;;5096328;28;19924;-54
2023/08/08 01:54:02;;;;;;;;;;;24.50;50.50;;;;;;5095580;28;19971;-54
2023/08/08 01:56:29;;;;;;;;;;;24.50;50.50;;;;;;5095081;28;20011;-54
2023/08/08 01:58:56;;;;;;;;;;;24.50;50.50;;;;;;5095857;28;20483;-55
2023/08/08 02:01:23;;;;;;;;;;;24.50;50.50;;;;;;5096104;28;20384;-50
2023/08/08 02:03:50;;;;;;;;;;;24.50;50.50;;;;;;5095788;28;19924;-54
2023/08/08 02:06:17;;;;;;;;;;;24.50;50.50;;;;;;5095840;28;19925;-50
2023/08/08 02:08:45;;;;;;;;;;;24.50;50.50;;;;;;5095614;28;20323;-53
2023/08/08 02:11:12;;;;;;;;;;;24.50;50.60;;;;;;5095386;28;19935;-57
2023/08/08 02:13:39;;;;;;;;;;;24.50;50.60;;;;;;5095837;28;19930;-52
2023/08/08 02:16:06;;;;;;;;;;;24.50;50.60;;;;;;5095785;28;19946;-55
2023/08/08 02:18:33;;;;;;;;;;;24.50;50.60;;;;;;5095866;28;19932;-55
2023/08/08 02:21:00;;;;;;;;;;;24.50;50.60;;;;;;5095822;28;19924;-55
2023/08/08 02:23:27;;;;;;;;;;;24.50;50.60;;;;;;5095359;28;19924;-53
2023/08/08 02:25:53;;;;;;;;;;;24.50;50.60;;;;;;5094082;28;20015;-55
2023/08/08 02:28:20;;;;;;;;;;;24.50;50.60;;;;;;5095622;28;19930;-52
2023/08/08 02:30:47;;;;;;;;;;;24.50;50.60;;;;;;5095095;28;20467;-50
2023/08/08 02:33:15;;;;;;;;;;;24.50;50.60;;;;;;5095098;28;19954;-51
2023/08/08 02:35:42;;;;;;;;;;;24.50;50.60;;;;;;5095320;28;19931;-50
2023/08/08 02:38:09;;;;;;;;;;;24.50;51.20;;;;;;5095108;28;19970;-53
2023/08/08 02:40:36;;;;;;;;;;;24.50;50.60;;;;;;5095209;28;19928;-50
2023/08/08 02:43:03;;;;;;;;;;;24.50;50.60;;;;;;5095348;28;19928;-53
2023/08/08 02:45:30;;;;;;;;;;;24.50;50.80;;;;;;5095156;28;19998;-50
2023/08/08 02:47:56;;;;;;;;;;;24.50;50.60;;;;;;5094077;28;19993;-54
2023/08/08 02:50:23;;;;;;;;;;;24.50;50.60;;;;;;5094490;28;19924;-55
2023/08/08 02:52:51;;;;;;;;;;;24.50;50.60;;;;;;5094773;28;20426;-55
2023/08/08 02:55:18;;;;;;;;;;;24.50;50.60;;;;;;5094732;28;19928;-55
2023/08/08 02:57:45;;;;;;;;;;;24.50;50.60;;;;;;5094486;28;19931;-55
2023/08/08 03:00:12;;;;;;;;;;;24.50;50.60;;;;;;5094863;28;19989;-51
2023/08/08 03:02:39;;;;;;;;;;;24.50;50.60;;;;;;5094898;28;20285;-54
2023/08/08 03:05:06;;;;;;;;;;;24.50;50.50;;;;;;5094709;28;19928;-55
2023/08/08 03:07:33;;;;;;;;;;;24.50;50.50;;;;;;5093777;28;19975;-55
2023/08/08 03:10:00;;;;;;;;;;;24.50;50.50;;;;;;5093009;28;19925;-54
2023/08/08 03:12:27;;;;;;;;;;;24.50;50.50;;;;;;5094156;28;19979;-52
2023/08/08 03:14:54;;;;;;;;;;;24.50;50.40;;;;;;5093772;28;20526;-55
2023/08/08 03:17:21;;;;;;;;;;;24.50;51.00;;;;;;5094575;28;19931;-55
2023/08/08 03:19:48;;;;;;;;;;;24.50;50.40;;;;;;5093959;28;19923;-54
2023/08/08 03:22:15;;;;;;;;;;;24.50;50.40;;;;;;5094081;28;19924;-56
2023/08/08 03:24:42;;;;;;;;;;;24.50;50.40;;;;;;5092324;28;19987;-55
2023/08/08 03:27:09;;;;;;;;;;;24.50;50.40;;;;;;5093576;28;19939;-56
2023/08/08 03:29:36;;;;;;;;;;;24.50;50.40;;;;;;5093712;28;19993;-55
2023/08/08 03:32:04;;;;;;;;;;;24.60;50.40;;;;;;5093723;28;19977;-55
2023/08/08 03:34:31;;;;;;;;;;;24.60;50.40;;;;;;5093346;28;20353;-53
2023/08/08 03:36:59;;;;;;;;;;;24.50;50.40;;;;;;5093038;28;20296;-55
2023/08/08 03:39:26;;;;;;;;;;;24.60;50.50;;;;;;5093171;28;19924;-54
2023/08/08 03:41:53;;;;;;;;;;;24.50;50.40;;;;;;5093680;28;20384;-55
2023/08/08 03:44:20;;;;;;;;;;;24.50;50.50;;;;;;5092733;28;19924;-55
2023/08/08 03:46:47;;;;;;;;;;;24.60;50.50;;;;;;5086677;28;19924;-55
2023/08/08 03:49:14;;;;;;;;;;;24.50;50.50;;;;;;5082664;28;19931;-54
2023/08/08 03:51:41;;;;;;;;;;;24.50;50.50;;;;;;5083817;28;20015;-55
2023/08/08 03:54:08;;;;;;;;;;;24.50;50.50;;;;;;5083801;28;20003;-54
2023/08/08 03:56:35;;;;;;;;;;;24.50;50.50;;;;;;5093156;28;19923;-53
2023/08/08 03:59:02;;;;;;;;;;;24.50;50.50;;;;;;5092260;28;20010;-55
2023/08/08 04:01:29;;;;;;;;;;;24.50;50.50;;;;;;5092982;28;20018;-54
2023/08/08 04:03:56;;;;;;;;;;;24.50;50.50;;;;;;5092771;28;19931;-52
2023/08/08 04:06:23;;;;;;;;;;;24.50;50.50;;;;;;5093425;28;19963;-50
2023/08/08 04:08:50;;;;;;;;;;;24.50;50.50;;;;;;5092212;28;20376;-51
2023/08/08 04:11:17;;;;;;;;;;;24.50;50.50;;;;;;5092718;28;19924;-51
2023/08/08 04:13:44;;;;;;;;;;;24.60;50.50;;;;;;5093173;28;19972;-52
2023/08/08 04:16:10;;;;;;;;;;;24.50;50.50;;;;;;5092633;28;20429;-52
2023/08/08 04:18:37;;;;;;;;;;;24.60;50.50;;;;;;5091236;28;19971;-53
2023/08/08 04:21:04;;;;;;;;;;;24.60;50.50;;;;;;5091048;28;19924;-53
2023/08/08 04:23:31;;;;;;;;;;;24.60;50.50;;;;;;5082797;28;20295;-53
2023/08/08 04:25:58;;;;;;;;;;;24.60;50.40;;;;;;5086112;28;20377;-52
2023/08/08 04:28:25;;;;;;;;;;;24.60;50.40;;;;;;5086978;28;19975;-52
2023/08/08 04:30:52;;;;;;;;;;;24.60;50.40;;;;;;5084431;28;19925;-53
2023/08/08 04:33:19;;;;;;;;;;;24.60;50.30;;;;;;5086640;28;19931;-53
2023/08/08 04:35:47;;;;;;;;;;;24.60;50.30;;;;;;5085944;28;20388;-52
2023/08/08 04:38:15;;;;;;;;;;;24.60;50.30;;;;;;5086709;28;20018;-52
2023/08/08 04:40:42;;;;;;;;;;;24.60;50.40;;;;;;5087092;28;19924;-51
2023/08/08 04:43:09;;;;;;;;;;;24.40;50.30;;;;;;5083338;28;19931;-53
2023/08/08 04:45:35;;;;;;;;;;;24.30;50.60;;;;;;5087473;28;19931;-52
2023/08/08 04:48:03;;;;;;;;;;;24.10;50.90;;;;;;5076648;28;20436;-52
2023/08/08 04:50:29;;;;;;;;;;;23.80;51.30;;;;;;5076448;28;19932;-54
2023/08/08 04:52:56;;;;;;;;;;;23.60;51.60;;;;;;5076918;28;19925;-52
2023/08/08 04:55:24;;;;;;;;;;;23.30;50.50;;;;;;5092875;28;20326;-52
2023/08/08 04:57:51;;;;;;;;;;;23.00;49.40;;;;;;5094804;28;19924;-53
2023/08/08 05:00:18;;;;;;;;;;;22.70;48.60;;;;;;5094884;28;19924;-51
2023/08/08 05:02:45;;;;;;;;;;;22.40;48.00;;;;;;5095539;28;19959;-53
2023/08/08 05:05:12;;;;;;;;;;;22.20;47.70;;;;;;5095775;28;20024;-51
2023/08/08 05:07:39;;;;;;;;;;;21.90;47.90;;;;;;5096173;28;20380;-53
2023/08/08 05:10:06;;;;;;;;;;;21.60;47.50;;;;;;5096265;28;20334;-52
2023/08/08 05:12:33;;;;;;;;;;;21.30;48.30;;;;;;5092112;28;20642;-48
2023/08/08 05:15:00;;;;;;;;;;;21.10;50.40;;;;;;5094723;28;20334;-52
2023/08/08 05:17:27;;;;;;;;;;;20.90;51.00;;;;;;5090050;28;20319;-52
2023/08/08 05:19:54;;;;;;;;;;;20.70;49.20;;;;;;5082199;28;19944;-48
2023/08/08 05:22:21;;;;;;;;;;;20.50;50.10;;;;;;5097736;28;19973;-54
2023/08/08 05:24:48;;;;;;;;;;;20.40;50.30;;;;;;5078157;28;19931;-53
2023/08/08 05:27:15;;;;;;;;;;;20.20;50.00;;;;;;5083008;28;19924;-53
2023/08/08 05:29:42;;;;;;;;;;;20.10;49.90;;;;;;5082793;28;19993;-52
2023/08/08 05:32:10;;;;;;;;;;;19.90;49.80;;;;;;5079679;28;19931;-56
2023/08/08 05:34:37;;;;;;;;;;;19.80;49.90;;;;;;5081463;28;19924;-56
2023/08/08 05:37:04;;;;;;;;;;;19.70;50.90;;;;;;5070708;28;19932;-55
2023/08/08 05:39:44;;;;;;;;;;;19.60;51.20;;;;;;5077437;28;19951;-56
2023/08/08 05:42:11;;;;;;;;;;;19.50;50.50;;;;;;5080290;28;21354;-56
2023/08/08 05:44:38;;;;;;;;;;;19.30;51.70;;;;;;5070605;28;20039;-55
2023/08/08 05:47:05;;;;;;;;;;;19.30;52.00;;;;;;5074725;28;20423;-57
2023/08/08 05:49:32;;;;;;;;;;;19.20;51.40;;;;;;5075844;28;19936;-55
2023/08/08 05:51:59;;;;;;;;;;;19.10;51.90;;;;;;5077671;28;19924;-55
2023/08/08 05:54:28;;;;;;;;;;;19.10;52.30;;;;;;5077698;28;19924;-57
2023/08/08 05:56:55;;;;;;;;;;;19.00;52.20;;;;;;5075872;28;19929;-57
2023/08/08 05:59:21;;;;;;;;;;;18.90;51.80;;;;;;5073931;28;19925;-59
2023/08/08 06:01:48;;;;;;;;;;;18.90;52.80;;;;;;5071778;28;19982;-57
2023/08/08 06:04:15;;;;;;;;;;;18.90;52.80;;;;;;5076776;28;19932;-55
2023/08/08 06:06:43;;;;;;;;;;;18.90;52.30;;;;;;5077991;28;19925;-55
2023/08/08 06:09:10;;;;;;;;;;;18.80;52.60;;;;;;5081089;28;20041;-58
2023/08/08 06:11:37;;;;;;;;;;;18.80;52.90;;;;;;5075076;28;19986;-61
2023/08/08 06:14:05;;;;;;;;;;;18.80;53.30;;;;;;5071647;28;19924;-59
2023/08/08 06:16:32;;;;;;;;;;;18.70;52.90;;;;;;5076594;28;20358;-58
2023/08/08 06:18:59;;;;;;;;;;;18.70;52.80;;;;;;5074973;28;19964;-58
2023/08/08 06:21:26;;;;;;;;;;;18.70;53.20;;;;;;5080613;28;19971;-57
2023/08/08 06:23:56;;;;;;;;;;;18.70;52.80;;;;;;5072898;28;19954;-62
2023/08/08 06:26:23;;;;;;;;;;;18.70;53.20;;;;;;5076862;28;19958;-59
2023/08/08 06:28:54;;;;;;;;;;;18.70;53.50;;;;;;5070878;28;19936;-59
2023/08/08 06:31:22;;;;;;;;;;;18.70;53.30;;;;;;5070126;28;19939;-59
2023/08/08 06:33:49;;;;;;;;;;;18.70;53.00;;;;;;5070552;28;19934;-59
2023/08/08 06:36:16;;;;;;;;;;;18.70;53.20;;;;;;5070789;28;19967;-57
2023/08/08 06:38:43;;;;;;;;;;;18.70;53.30;;;;;;5073086;28;20222;-57
2023/08/08 06:41:11;;;;;;;;;;;18.70;52.80;;;;;;5076555;28;19971;-60
2023/08/08 06:43:38;;;;;;;;;;;18.70;53.00;;;;;;5073997;28;20966;-59
2023/08/08 06:46:05;;;;;;;;;;;18.70;52.90;;;;;;5074462;28;20376;-58
2023/08/08 06:48:32;;;;;;;;;;;18.70;52.60;;;;;;5077215;28;19928;-57
2023/08/08 06:50:59;;;;;;;;;;;18.70;53.10;;;;;;5079348;28;19928;-58
2023/08/08 06:53:27;;;;;;;;;;;18.70;53.20;;;;;;5071640;28;19940;-61
2023/08/08 06:55:54;;;;;;;;;;;18.70;53.80;;;;;;5070454;28;20011;-58
2023/08/08 06:58:21;;;;;;;;;;;18.60;53.40;;;;;;5075455;28;19928;-58
2023/08/08 07:00:48;;;;;;;;;;;18.60;53.90;;;;;;5081047;28;19985;-57
2023/08/08 07:03:14;;;;;;;;;;;18.60;54.10;;;;;;5073613;28;20022;-60
2023/08/08 07:05:42;;;;;;;;;;;18.60;53.90;;;;;;5076183;28;19924;-60
2023/08/08 07:08:09;;;;;;;;;;;18.50;54.20;;;;;;5078232;28;20031;-60
2023/08/08 07:10:36;;;;;;;;;;;18.50;54.80;;;;;;5073353;28;19963;-60
2023/08/08 07:13:03;;;;;;;;;;;18.50;54.30;;;;;;5074229;28;20387;-59
2023/08/08 07:15:31;;;;;;;;;;;18.50;53.90;;;;;;5075488;28;19932;-59
2023/08/08 07:18:00;;;;;;;;;;;18.50;53.50;;;;;;5072835;28;20023;-59
2023/08/08 07:20:28;;;;;;;;;;;18.60;54.70;;;;;;5071761;28;19933;-59
2023/08/08 07:22:56;;;;;;;;;;;18.60;54.70;;;;;;5073715;28;19933;-59
2023/08/08 07:25:23;;;;;;;;;;;18.60;53.70;;;;;;5072145;28;19936;-59
2023/08/08 07:27:50;;;;;;;;;;;18.60;54.00;;;;;;5071460;28;20295;-59
2023/08/08 07:30:18;;;;;;;;;;;18.60;54.10;;;;;;5075425;28;20030;-59
2023/08/08 07:32:45;;;;;;;;;;;18.70;53.80;;;;;;5073496;28;19978;-56
2023/08/08 07:35:12;;;;;;;;;;;18.70;53.00;;;;;;5073353;28;19982;-58
2023/08/08 07:37:39;;;;;;;;;;;18.70;53.80;;;;;;5071439;28;20292;-57
2023/08/08 07:40:14;;;;;;;;;;;18.70;53.50;;;;;;5074653;28;19970;-56
2023/08/08 07:42:41;;;;;;;;;;;18.70;53.50;;;;;;5069440;28;19968;-55
2023/08/08 07:45:09;;;;;;;;;;;18.70;54.00;;;;;;5073936;28;19925;-61
2023/08/08 07:47:36;;;;;;;;;;;18.70;53.30;;;;;;5077910;28;19967;-59
2023/08/08 07:50:08;;;;;;;;;;;18.70;53.20;;;;;;5073498;28;19928;-59
2023/08/08 07:52:37;;;;;;;;;;;18.80;53.10;;;;;;5071976;28;19963;-59
2023/08/08 07:55:05;;;;;;;;;;;18.70;53.20;;;;;;5073086;28;20009;-59
2023/08/08 07:57:34;;;;;;;;;;;18.80;53.00;;;;;;5071185;28;20054;-60
2023/08/08 08:00:08;;;;;;;;;;;18.80;53.50;;;;;;5078205;28;20024;-57
2023/08/08 08:02:35;;;;;;;;;;;18.80;53.90;;;;;;5070153;28;19932;-58
2023/08/08 08:05:05;;;;;;;;;;;18.80;53.10;;;;;;5073765;28;19943;-59
2023/08/08 08:07:32;;;;;;;;;;;18.90;54.30;;;;;;5074145;28;20557;-58
2023/08/08 08:09:59;;;;;;;;;;;18.80;54.20;;;;;;5068190;28;19971;-61
2023/08/08 08:12:26;;;;;;;;;;;18.90;53.30;;;;;;5072988;28;19932;-58
2023/08/08 08:14:53;;;;;;;;;;;18.90;53.50;;;;;;5079765;28;20018;-55
2023/08/08 08:17:20;;;;;;;;;;;18.90;53.50;;;;;;5078702;28;20307;-57
2023/08/08 08:19:48;;;;;;;;;;;18.90;53.30;;;;;;5068195;28;19976;-58
2023/08/08 08:22:15;;;;;;;;;;;18.90;54.10;;;;;;5073006;28;20318;-58
2023/08/08 08:24:42;;;;;;;;;;;18.90;53.40;;;;;;5064497;28;19924;-59
2023/08/08 08:27:09;;;;;;;;;;;19.00;53.50;;;;;;5078688;28;19928;-59
2023/08/08 08:29:36;;;;;;;;;;;18.90;55.10;;;;;;5071054;28;20019;-57
2023/08/08 08:32:04;;;;;;;;;;;18.90;55.30;;;;;;5070288;28;19971;-61
2023/08/08 08:34:31;;;;;;;;;;;19.00;55.50;;;;;;5075853;28;19939;-59
2023/08/08 08:36:58;;;;;;;;;;;19.10;55.30;;;;;;5081112;28;19966;-59
2023/08/08 08:39:26;;;;;;;;;;;19.20;53.50;;;;;;5075474;28;19966;-57
2023/08/08 08:41:55;;;;;;;;;;;19.30;53.20;;;;;;5076535;28;21272;-59
2023/08/08 08:44:22;;;;;;;;;;;19.40;53.00;;;;;;5079290;28;19982;-59
2023/08/08 08:46:50;;;;;;;;;;;19.40;53.00;;;;;;5084123;28;19939;-56
2023/08/08 08:49:18;;;;;;;;;;;19.40;52.70;;;;;;5074057;28;19986;-59
2023/08/08 08:51:47;;;;;;;;;;;19.50;53.20;;;;;;5078666;28;19973;-58
2023/08/08 08:54:14;;;;;;;;;;;19.50;52.80;;;;;;5078260;28;19970;-58
2023/08/08 08:56:43;;;;;;;;;;;19.50;53.10;;;;;;5077034;28;19976;-59
2023/08/08 08:59:10;;;;;;;;;;;19.40;53.00;;;;;;5072147;28;19967;-60
2023/08/08 09:01:37;;;;;;;;;;;19.40;53.20;;;;;;5073407;28;19935;-60
2023/08/08 09:04:07;;;;;;;;;;;19.50;53.20;;;;;;5077071;28;19932;-60
2023/08/08 09:06:35;;;;;;;;;;;19.50;52.70;;;;;;5068644;28;20479;-60
2023/08/08 09:09:03;;;;;;;;;;;19.50;52.30;;;;;;5074333;28;19933;-59
2023/08/08 09:11:44;;;;;;;;;;;19.60;52.50;;;;;;5075520;28;19935;-59
2023/08/08 09:14:19;;;;;;;;;;;19.50;52.30;;;;;;5075850;28;19971;-59
2023/08/08 09:16:46;;;;;;;;;;;19.60;52.70;;;;;;5078220;28;19932;-61
2023/08/08 09:19:13;;;;;;;;;;;19.60;52.80;;;;;;5076978;28;19924;-59
2023/08/08 09:21:40;;;;;;;;;;;19.50;52.70;;;;;;5075170;28;19931;-58
2023/08/08 09:24:07;;;;;;;;;;;19.60;53.10;;;;;;5076559;28;19968;-59
2023/08/08 09:26:34;;;;;;;;;;;19.60;53.00;;;;;;5072317;28;19925;-59
2023/08/08 09:29:02;;;;;;;;;;;19.70;53.10;;;;;;5071103;28;20001;-61
2023/08/08 09:31:30;;;;;;;;;;;19.70;52.80;;;;;;5073762;28;20340;-60
2023/08/08 09:34:01;;;;;;;;;;;19.70;52.90;;;;;;5072318;28;19933;-60
2023/08/08 09:36:29;;;;;;;;;;;19.70;53.00;;;;;;5074427;28;20438;-60
2023/08/08 09:38:59;;;;;;;;;;;19.70;53.20;;;;;;5074570;28;19985;-57
2023/08/08 09:41:26;;;;;;;;;;;19.70;53.10;;;;;;5071862;28;19989;-61
2023/08/08 09:43:53;;;;;;;;;;;19.70;53.40;;;;;;5075174;28;20468;-60
2023/08/08 09:46:21;;;;;;;;;;;19.70;53.60;;;;;;5076350;28;19987;-60
2023/08/08 09:48:50;;;;;;;;;;;19.70;53.30;;;;;;5075724;28;20015;-60
2023/08/08 09:51:17;;;;;;;;;;;19.70;52.80;;;;;;5076885;28;20377;-61
2023/08/08 09:53:46;;;;;;;;;;;19.70;52.70;;;;;;5077266;28;19985;-59
2023/08/08 09:56:14;;;;;;;;;;;19.70;53.30;;;;;;5069815;28;19955;-60
2023/08/08 09:58:42;;;;;;;;;;;19.70;53.70;;;;;;5075719;28;20395;-59
2023/08/08 10:01:12;;;;;;;;;;;19.70;53.90;;;;;;5078361;28;20929;-56
2023/08/08 10:03:42;;;;;;;;;;;19.70;53.40;;;;;;5072973;28;19924;-57
2023/08/08 10:06:10;;;;;;;;;;;19.70;53.20;;;;;;5078802;28;20022;-57
2023/08/08 10:08:37;;;;;;;;;;;19.70;53.30;;;;;;5079851;28;19951;-58
2023/08/08 10:11:05;;;;;;;;;;;19.70;53.00;;;;;;5077094;28;19928;-57
2023/08/08 10:13:34;;;;;;;;;;;19.70;53.40;;;;;;5079776;28;19939;-57
2023/08/08 10:16:08;;;;;;;;;;;19.70;53.10;;;;;;5077257;28;20265;-57
2023/08/08 10:18:36;;;;;;;;;;;19.70;52.70;;;;;;5079535;28;20019;-58
2023/08/08 10:21:06;;;;;;;;;;;19.70;52.80;;;;;;5079101;28;19931;-57
2023/08/08 10:23:37;;;;;;;;;;;19.60;52.60;;;;;;5081712;28;19985;-57
2023/08/08 10:26:04;;;;;;;;;;;19.60;52.10;;;;;;5081089;28;19927;-59
2023/08/08 10:28:34;;;;;;;;;;;19.50;52.30;;;;;;5068638;28;20003;-58
2023/08/08 10:31:08;;;;;;;;;;;19.50;52.10;;;;;;5084629;28;19974;-58
2023/08/08 10:33:42;;;;;;;;;;;19.40;51.80;;;;;;5080631;28;20296;-60
2023/08/08 10:36:10;;;;;;;;;;;19.40;52.50;;;;;;5077182;28;20028;-59
2023/08/08 10:38:42;;;;;;;;;;;19.30;52.30;;;;;;5082034;28;19982;-59
2023/08/08 10:41:11;;;;;;;;;;;19.30;52.30;;;;;;5070505;28;19936;-57
2023/08/08 10:43:38;;;;;;;;;;;19.20;52.70;;;;;;5083176;28;19975;-59
2023/08/08 10:46:06;;;;;;;;;;;19.20;52.50;;;;;;5081855;28;20104;-59
2023/08/08 10:48:51;;;;;;;;;;;19.20;53.10;;;;;;5078007;28;19932;-59
2023/08/08 10:51:19;;;;;;;;;;;19.20;52.90;;;;;;5074619;28;19994;-58
2023/08/08 10:53:46;;;;;;;;;;;19.20;52.30;;;;;;5077726;28;20030;-59
2023/08/08 10:56:14;;;;;;;;;;;19.10;52.40;;;;;;5075359;28;19924;-59
2023/08/08 10:58:42;;;;;;;;;;;19.10;52.10;;;;;;5074252;28;20285;-59
2023/08/08 11:01:10;;;;;;;;;;;19.10;52.30;;;;;;5079862;28;19963;-58
2023/08/08 11:03:39;;;;;;;;;;;19.10;52.80;;;;;;5079707;28;19924;-61
2023/08/08 11:06:06;;;;;;;;;;;19.10;53.20;;;;;;5079827;28;19986;-58
2023/08/08 11:08:35;;;;;;;;;;;19.10;52.40;;;;;;5069514;28;20011;-57
2023/08/08 11:11:03;;;;;;;;;;;19.10;52.30;;;;;;5072904;28;19931;-55
2023/08/08 11:13:30;;;;;;;;;;;19.10;52.60;;;;;;5076141;28;19960;-56
2023/08/08 11:15:58;;;;;;;;;;;19.00;52.50;;;;;;5077632;28;19927;-58
2023/08/08 11:18:27;;;;;;;;;;;19.10;53.00;;;;;;5065385;28;20213;-57
2023/08/08 11:20:54;;;;;;;;;;;19.10;52.70;;;;;;5072757;28;19931;-58
2023/08/08 11:23:38;;;;;;;;;;;19.00;52.50;;;;;;5074535;28;20381;-58
2023/08/08 11:26:05;;;;;;;;;;;19.00;52.90;;;;;;5075089;28;19924;-58
2023/08/08 11:28:35;;;;;;;;;;;19.10;52.80;;;;;;5077220;28;20424;-59
2023/08/08 11:31:02;;;;;;;;;;;19.10;52.90;;;;;;5074154;28;20003;-56
2023/08/08 11:33:31;;;;;;;;;;;19.10;53.70;;;;;;5078924;28;19925;-58
2023/08/08 11:35:58;;;;;;;;;;;19.10;53.30;;;;;;5079698;28;19928;-59
2023/08/08 11:38:28;;;;;;;;;;;19.00;52.70;;;;;;5080907;28;19963;-59
2023/08/08 11:40:55;;;;;;;;;;;19.10;53.40;;;;;;5081737;28;20375;-59
2023/08/08 11:43:22;;;;;;;;;;;19.10;53.20;;;;;;5080336;28;19982;-57
2023/08/08 11:45:49;;;;;;;;;;;19.10;53.10;;;;;;5069041;28;20304;-57
2023/08/08 11:48:16;;;;;;;;;;;19.10;53.00;;;;;;5065752;28;19936;-57
2023/08/08 11:50:44;;;;;;;;;;;19.00;54.00;;;;;;5064210;28;20416;-58
2023/08/08 11:53:11;;;;;;;;;;;19.10;53.90;;;;;;5068748;28;20030;-58
2023/08/08 11:55:38;;;;;;;;;;;19.10;53.20;;;;;;5063953;28;19928;-58
2023/08/08 11:58:05;;;;;;;;;;;19.10;53.60;;;;;;5067153;28;20288;-58
2023/08/08 12:00:34;;;;;;;;;;;19.10;53.40;;;;;;5068169;28;19932;-57
2023/08/08 12:03:04;;;;;;;;;;;19.20;53.40;;;;;;5064449;28;19939;-58
2023/08/08 12:05:35;;;;;;;;;;;19.20;53.30;;;;;;5065189;28;19975;-57
2023/08/08 12:08:04;;;;;;;;;;;19.10;53.70;;;;;;5073338;28;19982;-57
2023/08/08 12:10:31;;;;;;;;;;;19.10;53.70;;;;;;5078858;28;19956;-58
2023/08/08 12:12:59;;;;;;;;;;;19.20;53.40;;;;;;5073286;28;19971;-57
2023/08/08 12:15:31;;;;;;;;;;;19.20;54.20;;;;;;5073050;28;20261;-56
2023/08/08 12:17:59;;;;;;;;;;;19.20;54.20;;;;;;5068572;28;19940;-56
2023/08/08 12:20:27;;;;;;;;;;;19.20;53.90;;;;;;5070976;28;19924;-58
2023/08/08 12:22:54;;;;;;;;;;;19.30;54.60;;;;;;5081738;28;19952;-56
2023/08/08 12:25:22;;;;;;;;;;;19.20;54.20;;;;;;5077795;28;19924;-57
2023/08/08 12:27:49;;;;;;;;;;;19.30;54.00;;;;;;5070969;28;19986;-56
2023/08/08 12:30:18;;;;;;;;;;;19.30;54.10;;;;;;5072823;28;19931;-57
2023/08/08 12:32:45;;;;;;;;;;;19.40;54.20;;;;;;5072882;28;20392;-58
2023/08/08 12:35:12;;;;;;;;;;;19.40;54.50;;;;;;5076876;28;19974;-55
2023/08/08 12:37:39;;;;;;;;;;;19.40;54.50;;;;;;5087774;28;20018;-57
2023/08/08 12:40:07;;;;;;;;;;;19.50;54.20;;;;;;5071184;28;20324;-58
2023/08/08 12:42:34;;;;;;;;;;;19.50;54.40;;;;;;5073820;28;20373;-54
2023/08/08 12:45:01;;;;;;;;;;;19.50;54.20;;;;;;5085384;28;19928;-55
2023/08/08 12:47:29;;;;;;;;;;;19.50;54.10;;;;;;5075979;28;19932;-57
2023/08/08 12:49:56;;;;;;;;;;;19.60;54.20;;;;;;5084691;28;19981;-55
2023/08/08 12:52:23;;;;;;;;;;;19.60;54.30;;;;;;5086460;28;19931;-58
2023/08/08 12:54:52;;;;;;;;;;;19.60;54.20;;;;;;5081549;28;20276;-59
2023/08/08 12:57:20;;;;;;;;;;;19.60;54.10;;;;;;5081165;28;19933;-56
2023/08/08 12:59:47;;;;;;;;;;;19.70;54.20;;;;;;5077422;28;19924;-58
2023/08/08 13:02:14;;;;;;;;;;;19.70;54.20;;;;;;5078327;28;19975;-58
2023/08/08 13:04:41;;;;;;;;;;;19.70;54.40;;;;;;5073624;28;19936;-58
2023/08/08 13:07:08;;;;;;;;;;;19.70;54.10;;;;;;5072465;28;20039;-57
2023/08/08 13:09:35;;;;;;;;;;;19.70;54.30;;;;;;5083963;28;19975;-53
2023/08/08 13:12:02;;;;;;;;;;;19.70;54.20;;;;;;5074482;28;19928;-56
2023/08/08 13:14:29;;;;;;;;;;;19.80;54.40;;;;;;5081610;28;20458;-58
2023/08/08 13:16:56;;;;;;;;;;;19.80;54.20;;;;;;5072265;28;19929;-56
2023/08/08 13:19:25;;;;;;;;;;;19.80;54.20;;;;;;5074219;28;19932;-50
2023/08/08 13:21:52;;;;;;;;;;;19.80;54.20;;;;;;5075789;28;19935;-58
2023/08/08 13:24:20;;;;;;;;;;;19.90;54.10;;;;;;5079076;28;20343;-57
2023/08/08 13:26:47;;;;;;;;;;;19.80;54.30;;;;;;5081424;28;19932;-57
2023/08/08 13:29:14;;;;;;;;;;;19.90;54.40;;;;;;5082164;28;20209;-56
2023/08/08 13:31:41;;;;;;;;;;;19.90;54.30;;;;;;5070963;28;20471;-58
2023/08/08 13:34:09;;;;;;;;;;;19.90;54.50;;;;;;5078304;28;20023;-59
2023/08/08 13:36:36;;;;;;;;;;;19.90;54.60;;;;;;5078552;28;19974;-59
2023/08/08 13:39:04;;;;;;;;;;;19.90;55.10;;;;;;5078557;28;19962;-59
2023/08/08 13:41:31;;;;;;;;;;;19.90;54.60;;;;;;5081529;28;19928;-57
2023/08/08 13:43:59;;;;;;;;;;;20.00;54.50;;;;;;5081679;28;20361;-58
2023/08/08 13:46:26;;;;;;;;;;;20.00;54.30;;;;;;5079634;28;19977;-59
2023/08/08 13:48:53;;;;;;;;;;;20.00;54.90;;;;;;5077118;28;19980;-56
2023/08/08 13:51:20;;;;;;;;;;;20.00;54.80;;;;;;5077734;28;21014;-58
2023/08/08 13:53:48;;;;;;;;;;;20.00;54.40;;;;;;5080041;28;19924;-53
2023/08/08 13:56:16;;;;;;;;;;;20.00;54.30;;;;;;5072092;28;19932;-56
2023/08/08 13:58:43;;;;;;;;;;;20.00;54.10;;;;;;5078992;28;19978;-57
2023/08/08 14:01:10;;;;;;;;;;;20.10;54.20;;;;;;5081529;28;20018;-57
2023/08/08 14:03:38;;;;;;;;;;;20.10;54.40;;;;;;5081641;28;19935;-58
2023/08/08 14:06:06;;;;;;;;;;;20.20;62.30;;;;;;5081106;28;20290;-57
2023/08/08 14:08:33;;;;;;;;;;;20.40;67.40;;;;;;5078588;28;20370;-53
2023/08/08 14:11:00;;;;;;;;;;;20.70;70.50;;;;;;5074215;28;20373;-55
2023/08/08 14:13:27;;;;;;;;;;;21.00;70.60;;;;;;5078609;28;20015;-57
2023/08/08 14:15:54;;;;;;;;;;;21.30;71.30;;;;;;5076255;28;19929;-58
2023/08/08 14:18:21;;;;;;;;;;;21.60;71.10;;;;;;5093287;28;19932;-57